Airfield :
LOGIN :

Register | Disclaimer

   EN    FR    IT 

 










Legend :    VFR   Marginal VFR   IFR   Intensive IFR   Very Intensive IFR
Visi :
Ceiling :
>= 8 km
>= 3000ft
5 to 8 km
1000 to 3000 ft
1500m to 5 km
500 to 1000 ft
800 to 1500m
200 to 500 ft
< 800m
< 200 ft
Symbols :   Thunderstorms  Fog  Heavy snow  Heavy precipitations  Wind > 20 kt
SIGMETs :     Misc.  Thunderstorms  Icing  Turbulence  Mountain Waves  Volcanic Ashes






- Airport Elevation : 218 ft
- IATA code : LBG


LFPB - Paris / Le Bourget

CURRENT METAR :
  • 280800Z AUTO 23004KT 9999 BKN009 OVC140 09/08 Q1012 TEMPO BKN004

EXPIRED METARs :
  • 280730Z AUTO 24005KT 9999 OVC009 09/08 Q1012 TEMPO BKN004
  • 280700Z AUTO 24004KT 9999 OVC008 09/08 Q1011 TEMPO BKN004
  • 280630Z AUTO 23003KT 9999 OVC007 09/08 Q1011 TEMPO BKN004
  • 280600Z AUTO VRB03KT 9999 OVC007 09/09 Q1011 TEMPO BKN004
  • 280530Z AUTO VRB03KT 9999 OVC008 09/08 Q1011 TEMPO BKN004

TAF TAF LFPB
Valid from the 28 at 06:00 until the 29 at 06:00 UTC


280500Z 2806/2906 20005KT 9999 BKN008
PROB40
TEMPO 2806/2809 BKN004
BECMG 2810/2812 BKN014
BECMG 2812/2814 BKN020
PROB40
TEMPO 2813/2816 SCT015TCU
BECMG 2901/2903 4000 BR BKN010
PROB40
TEMPO 2903/2906 0800 FG BKN003
ATIS : +33 1 48 62 43 92



MET'MAP, your aeronautical weather chart ! - Copyright ORBIFLY December 2007 - Disclaimer

ORBIFLY MET'MAP TEAM :

Programming & Development : Alexandra Zaïnal
Original concept : Baudouin d'Aumeries
Technical & hardware support : Manuel Goepfert
Assistance : Marc-Olivier Méhu




SOURCES & CREDITS :

   NOAA